CDT,Max TemperatureF,Mean TemperatureF,Min TemperatureF,Max Dew PointF,MeanDew PointF,Min DewpointF,Max Humidity, Mean Humidity, Min Humidity, Max Sea Level PressureIn, Mean Sea Level PressureIn, Min Sea Level PressureIn, Max VisibilityMiles, Mean VisibilityMiles, Min VisibilityMiles, Max Wind SpeedMPH, Mean Wind SpeedMPH, Max Gust SpeedMPH,PrecipitationIn, CloudCover, Events, WindDirDegrees
2011-10-1,90,80,69,72,64,56,87,62,37,30.13,30.07,30.01,10,10,10,22,11,31,0.00,1,,68
2011-10-2,87,74,61,58,54,51,73,53,32,30.19,30.14,30.10,10,10,10,20,9,25,0.00,1,,89
2011-10-3,86,73,60,59,55,52,78,56,34,30.20,30.15,30.12,10,10,10,21,8,31,0.00,1,,96
2011-10-4,88,76,64,63,60,55,78,59,40,30.18,30.11,30.06,10,10,10,17,10,24,0.00,2,,77
2011-10-5,90,78,66,66,63,59,81,62,43,30.08,30.02,29.96,10,10,10,21,9,35,T,2,Rain,119
2011-10-6,94,82,70,71,68,63,79,60,41,29.97,29.93,29.88,10,10,10,23,10,30,0.00,2,,124
2011-10-7,94,86,77,74,72,71,79,64,49,29.99,29.95,29.91,10,10,10,28,17,37,0.06,3,Rain,131
2011-10-8,91,84,77,75,72,69,85,67,49,29.96,29.91,29.84,10,10,4,28,17,39,0.07,4,Rain-Thunderstorm,137
2011-10-9,81,76,70,72,69,66,90,80,69,29.96,29.90,29.83,10,8,0,29,12,35,0.84,5,Fog-Rain-Thunderstorm,44
2011-10-10,86,78,70,71,68,66,97,76,55,30.00,29.94,29.88,10,9,3,15,9,17,0.00,5,,33
2011-10-11,85,77,69,71,69,67,97,79,61,29.94,29.88,29.83,10,10,7,14,7,18,0.00,2,,78
2011-10-12,94,81,67,76,69,66,94,68,41,29.83,29.78,29.72,10,10,10,20,8,25,0.00,1,Fog,155
2011-10-13,92,78,64,76,66,43,100,59,18,29.94,29.88,29.81,10,7,0,29,9,38,0.96,4,Fog-Rain-Thunderstorm,32
2011-10-14,88,75,62,62,57,50,84,56,28,30.00,29.94,29.90,10,10,10,13,6,17,0.00,0,,66
2011-10-15,87,76,64,68,65,60,93,72,51,30.05,30.00,29.95,10,10,10,18,10,26,0.00,2,,66
2011-10-16,88,79,69,71,67,63,90,68,46,30.07,30.01,29.95,10,10,10,15,7,17,0.00,1,,92
2011-10-17,92,79,66,72,66,59,100,67,34,29.96,29.85,29.74,10,10,10,18,7,23,0.00,1,,163
2011-10-18,82,71,59,72,53,38,93,58,23,30.11,29.90,29.71,10,10,10,31,16,38,0.00,1,,354
2011-10-19,78,66,53,40,33,26,59,48,36,30.21,30.12,30.06,10,10,10,30,10,25,0.00,0,,325
2011-10-20,85,68,50,57,44,33,68,46,24,30.15,30.07,30.00,10,10,10,23,9,29,0.00,0,,163
2011-10-21,89,77,64,65,62,57,87,64,40,30.12,30.07,30.04,10,10,10,24,12,30,0.00,1,,155
2011-10-22,88,78,67,64,62,60,81,61,40,30.08,30.03,29.98,10,10,10,26,14,32,0.00,2,,153
2011-10-23,91,77,62,67,62,58,90,62,34,30.08,29.99,29.94,10,10,10,23,10,28,0.00,1,,161
2011-10-24,90,77,64,65,64,61,93,66,38,30.18,30.12,30.07,10,10,10,18,8,23,0.00,1,Fog,167
2011-10-25,90,76,61,67,63,59,100,69,37,30.13,30.07,29.99,10,9,2,23,11,29,0.00,1,Fog,163
2011-10-26,90,76,61,66,62,58,100,68,36,30.00,29.91,29.83,10,10,9,23,12,28,0.00,1,Fog,161
2011-10-27,92,78,63,69,64,51,87,62,36,29.98,29.82,29.75,10,10,10,31,13,36,0.02,2,Rain,155
2011-10-28,72,62,52,51,45,42,72,54,35,30.29,30.15,30.00,10,10,10,26,18,32,T,4,,358
2011-10-29,71,57,42,43,39,34,76,52,28,30.35,30.24,30.14,10,10,10,14,7,21,0.00,0,,28
2011-10-30,79,64,49,55,50,40,83,63,42,30.17,30.11,30.07,10,10,10,16,7,21,0.00,1,,81
2011-10-31,80,68,56,57,54,50,86,61,35,30.22,30.16,30.12,10,10,10,17,8,0,0.00,1,,78